createdAt,value
2022-12-05T00:00:55.474Z,0.24
2022-12-05T00:01:56.095Z,0.24
2022-12-05T00:02:56.965Z,0.28
2022-12-05T00:03:57.867Z,0.28
2022-12-05T00:04:58.714Z,0.29
2022-12-05T00:05:59.588Z,0.28
2022-12-05T00:07:00.471Z,0.28
2022-12-05T00:08:01.520Z,0.29
2022-12-05T00:09:01.911Z,0.28
2022-12-05T00:10:02.761Z,0.28
2022-12-05T00:11:03.646Z,0.31
2022-12-05T00:12:04.537Z,0.29
2022-12-05T00:13:05.421Z,0.29
2022-12-05T00:14:06.294Z,0.29
2022-12-05T00:15:07.199Z,0.29
2022-12-05T00:16:08.149Z,0.29
2022-12-05T00:17:09.049Z,0.26
2022-12-05T00:18:09.910Z,0.26
2022-12-05T00:19:10.795Z,0.24
2022-12-05T00:20:11.670Z,0.24
2022-12-05T00:21:12.558Z,0.26
2022-12-05T00:22:13.434Z,0.24
2022-12-05T00:23:14.325Z,0.26
2022-12-05T00:24:15.206Z,0.24
2022-12-05T00:25:16.082Z,0.28
2022-12-05T00:26:16.965Z,0.28
2022-12-05T00:27:17.860Z,0.28
2022-12-05T00:28:18.745Z,0.29
2022-12-05T00:29:19.628Z,0.29
2022-12-05T00:30:20.511Z,0.28
2022-12-05T00:31:21.520Z,0.28
2022-12-05T00:32:22.468Z,0.21
2022-12-05T00:33:23.340Z,0.23
2022-12-05T00:34:24.211Z,0.18
2022-12-05T00:35:25.089Z,0.17
2022-12-05T00:36:25.967Z,0.14
2022-12-05T00:37:26.849Z,0.11
2022-12-05T00:38:27.739Z,0.10
2022-12-05T00:39:28.622Z,0.08
2022-12-05T00:40:29.494Z,0.04
2022-12-05T00:41:30.368Z,0.03
2022-12-05T00:42:31.250Z,-0.01
2022-12-05T00:43:32.135Z,-0.04
2022-12-05T00:44:33.016Z,-0.04
2022-12-05T00:45:34.007Z,-0.07
2022-12-05T00:46:34.942Z,-0.08
2022-12-05T00:47:35.809Z,-0.10
2022-12-05T00:48:36.674Z,-0.08
2022-12-05T00:49:37.547Z,-0.10
2022-12-05T00:50:38.430Z,-0.10
2022-12-05T00:51:39.316Z,-0.10
2022-12-05T00:52:40.190Z,-0.08
2022-12-05T00:53:41.068Z,-0.05
2022-12-05T00:54:41.954Z,-0.04
2022-12-05T00:55:42.824Z,0.00
2022-12-05T00:56:43.705Z,0.02
2022-12-05T00:57:44.593Z,0.03
2022-12-05T00:58:45.473Z,0.03
2022-12-05T00:59:46.347Z,0.07
2022-12-05T01:00:47.318Z,0.07
2022-12-05T01:01:48.216Z,0.08
2022-12-05T01:02:49.140Z,0.07
2022-12-05T01:03:50.019Z,0.08
2022-12-05T01:04:50.888Z,0.08
2022-12-05T01:05:51.762Z,0.10
2022-12-05T01:06:52.646Z,0.11
2022-12-05T01:07:53.575Z,0.07
2022-12-05T01:08:54.441Z,0.08
2022-12-05T01:09:55.621Z,0.04
2022-12-05T01:10:56.147Z,0.07
2022-12-05T01:11:57.021Z,0.07
2022-12-05T01:12:57.905Z,0.07
2022-12-05T01:13:58.785Z,0.08
2022-12-05T01:14:59.669Z,0.10
2022-12-05T01:16:00.552Z,0.08
2022-12-05T01:17:01.478Z,0.10
2022-12-05T01:18:02.375Z,0.11
2022-12-05T01:19:03.244Z,0.11
2022-12-05T01:20:04.112Z,0.10
2022-12-05T01:21:04.993Z,0.11
2022-12-05T01:22:05.872Z,0.13
2022-12-05T01:23:06.756Z,0.13
2022-12-05T01:24:07.645Z,0.13
2022-12-05T01:25:08.527Z,0.10
2022-12-05T01:26:09.403Z,0.08
2022-12-05T01:27:10.280Z,0.11
2022-12-05T01:28:11.154Z,0.10
2022-12-05T01:29:12.146Z,0.10
2022-12-05T01:30:13.072Z,0.10
2022-12-05T01:31:13.913Z,0.10
2022-12-05T01:32:14.903Z,0.11
2022-12-05T01:33:15.351Z,0.13
2022-12-05T01:34:16.218Z,0.14
2022-12-05T01:35:17.082Z,0.11
2022-12-05T01:36:17.955Z,0.10
2022-12-05T01:37:18.845Z,0.13
2022-12-05T01:38:19.731Z,0.08
2022-12-05T01:39:20.638Z,0.08
2022-12-05T01:40:21.500Z,0.07
2022-12-05T01:41:22.383Z,0.07
2022-12-05T01:42:26.388Z,0.03
2022-12-05T01:43:23.908Z,0.04
2022-12-05T01:44:24.800Z,0.02
2022-12-05T01:45:25.672Z,0.00
2022-12-05T01:46:26.659Z,0.00
2022-12-05T01:47:27.532Z,-0.03
2022-12-05T01:48:28.429Z,-0.05
2022-12-05T01:49:29.297Z,-0.05
2022-12-05T01:50:30.183Z,-0.04
2022-12-05T01:51:31.071Z,-0.04
2022-12-05T01:52:31.938Z,-0.03
2022-12-05T01:53:32.820Z,-0.04
2022-12-05T01:54:33.702Z,-0.03
2022-12-05T01:55:34.585Z,-0.03
2022-12-05T01:56:35.460Z,-0.04
2022-12-05T01:57:36.358Z,-0.03
2022-12-05T01:58:37.227Z,-0.01
2022-12-05T01:59:38.117Z,-0.03
2022-12-05T02:00:39.001Z,0.00
2022-12-05T02:01:39.928Z,0.00
2022-12-05T02:02:40.856Z,0.03
2022-12-05T02:03:41.715Z,0.03
2022-12-05T02:04:42.584Z,0.04
2022-12-05T02:05:43.466Z,0.04
2022-12-05T02:06:44.341Z,0.04
2022-12-05T02:07:45.264Z,0.07
2022-12-05T02:08:46.094Z,0.04
2022-12-05T02:09:47.001Z,0.04
2022-12-05T02:10:47.873Z,0.03
2022-12-05T02:11:48.755Z,0.02
2022-12-05T02:12:49.628Z,0.04
2022-12-05T02:13:50.510Z,0.02
2022-12-05T02:14:51.393Z,0.02
2022-12-05T02:15:56.794Z,0.00
2022-12-05T02:16:52.893Z,0.00
2022-12-05T02:17:53.712Z,-0.01
2022-12-05T02:18:54.610Z,-0.01
2022-12-05T02:19:55.763Z,-0.05
2022-12-05T02:20:56.365Z,-0.05
2022-12-05T02:21:57.253Z,-0.07
2022-12-05T02:22:58.129Z,-0.07
2022-12-05T02:23:59.010Z,-0.07
2022-12-05T02:24:59.895Z,-0.10
2022-12-05T02:26:00.775Z,-0.05
2022-12-05T02:27:01.648Z,-0.07
2022-12-05T02:28:02.540Z,-0.05
2022-12-05T02:29:03.424Z,-0.07
2022-12-05T02:30:04.320Z,-0.05
2022-12-05T02:31:05.313Z,-0.05
2022-12-05T02:32:05.683Z,-0.04
2022-12-05T02:33:06.557Z,-0.01
2022-12-05T02:34:07.463Z,0.00
2022-12-05T02:35:08.322Z,0.02
2022-12-05T02:36:09.237Z,0.03
2022-12-05T02:37:10.087Z,0.07
2022-12-05T02:38:10.970Z,0.11
2022-12-05T02:39:11.852Z,0.13
2022-12-05T02:40:12.743Z,0.18
2022-12-05T02:41:13.618Z,0.17
2022-12-05T02:42:14.514Z,0.18
2022-12-05T02:43:15.384Z,0.20
2022-12-05T02:44:16.266Z,0.18
2022-12-05T02:45:17.184Z,0.20
2022-12-05T02:46:18.125Z,0.20
2022-12-05T02:47:18.966Z,0.20
2022-12-05T02:48:19.854Z,0.17
2022-12-05T02:49:20.749Z,0.21
2022-12-05T02:50:21.621Z,0.24
2022-12-05T02:51:22.493Z,0.21
2022-12-05T02:52:23.376Z,0.24
2022-12-05T02:53:24.270Z,0.29
2022-12-05T02:54:25.144Z,0.29
2022-12-05T02:55:26.032Z,0.31
2022-12-05T02:56:26.913Z,0.35
2022-12-05T02:57:27.787Z,0.35
2022-12-05T02:58:28.669Z,0.36
2022-12-05T02:59:29.543Z,0.38
2022-12-05T03:00:30.449Z,0.38
2022-12-05T03:01:31.439Z,0.39
2022-12-05T03:02:31.876Z,0.39
2022-12-05T03:03:32.732Z,0.39
2022-12-05T03:04:33.708Z,0.41
2022-12-05T03:05:34.568Z,0.46
2022-12-05T03:06:35.447Z,0.46
2022-12-05T03:07:36.384Z,0.44
2022-12-05T03:08:37.256Z,0.44
2022-12-05T03:09:38.129Z,0.44
2022-12-05T03:10:39.027Z,0.44
2022-12-05T03:11:39.901Z,0.46
2022-12-05T03:12:40.783Z,0.44
2022-12-05T03:13:41.671Z,0.44
2022-12-05T03:14:42.540Z,0.41
2022-12-05T03:15:43.449Z,0.44
2022-12-05T03:16:44.404Z,0.44
2022-12-05T03:17:45.234Z,0.44
2022-12-05T03:18:46.118Z,0.46
2022-12-05T03:19:47.017Z,0.44
2022-12-05T03:20:47.900Z,0.44
2022-12-05T03:21:48.782Z,0.47
2022-12-05T03:22:49.663Z,0.46
2022-12-05T03:23:50.542Z,0.46
2022-12-05T03:24:51.413Z,0.44
2022-12-05T03:25:52.335Z,0.44
2022-12-05T03:26:53.192Z,0.42
2022-12-05T03:27:54.075Z,0.44
2022-12-05T03:28:54.949Z,0.44
2022-12-05T03:29:56.062Z,0.46
2022-12-05T03:30:56.679Z,0.42
2022-12-05T03:31:57.538Z,0.44
2022-12-05T03:32:58.415Z,0.42
2022-12-05T03:33:59.298Z,0.41
2022-12-05T03:35:00.195Z,0.42
2022-12-05T03:36:01.077Z,0.42
2022-12-05T03:37:01.950Z,0.44
2022-12-05T03:38:02.832Z,0.41
2022-12-05T03:39:03.729Z,0.44
2022-12-05T03:40:04.597Z,0.41
2022-12-05T03:41:05.480Z,0.42
2022-12-05T03:42:06.363Z,0.41
2022-12-05T03:43:07.236Z,0.39
2022-12-05T03:44:08.117Z,0.38
2022-12-05T03:45:09.003Z,0.38
2022-12-05T03:46:09.979Z,0.38
2022-12-05T03:47:10.828Z,0.39
2022-12-05T03:48:11.712Z,0.38
2022-12-05T03:49:12.585Z,0.39
2022-12-05T03:50:13.495Z,0.39
2022-12-05T03:51:14.362Z,0.39
2022-12-05T03:52:15.233Z,0.41
2022-12-05T03:53:20.624Z,0.39
2022-12-05T03:54:17.875Z,0.38
2022-12-05T03:55:17.748Z,0.39
2022-12-05T03:56:18.642Z,0.39
2022-12-05T03:57:19.529Z,0.38
2022-12-05T03:58:20.411Z,0.41
2022-12-05T03:59:21.283Z,0.42
2022-12-05T04:00:22.166Z,0.42
2022-12-05T04:01:23.123Z,0.47
2022-12-05T04:02:23.940Z,0.46
2022-12-05T04:03:24.871Z,0.47
2022-12-05T04:04:25.728Z,0.47
2022-12-05T04:05:26.623Z,0.47
2022-12-05T04:06:27.491Z,0.49
2022-12-05T04:07:28.371Z,0.50
2022-12-05T04:08:29.247Z,0.50
2022-12-05T04:09:30.120Z,0.50
2022-12-05T04:10:31.009Z,0.51
2022-12-05T04:11:31.909Z,0.53
2022-12-05T04:12:32.779Z,0.53
2022-12-05T04:13:33.662Z,0.53
2022-12-05T04:14:34.534Z,0.57
2022-12-05T04:15:35.443Z,0.57
2022-12-05T04:16:36.299Z,0.55
2022-12-05T04:17:37.187Z,0.55
2022-12-05T04:18:38.055Z,0.57
2022-12-05T04:19:38.930Z,0.57
2022-12-05T04:20:39.834Z,0.58
2022-12-05T04:21:40.716Z,0.58
2022-12-05T04:22:41.577Z,0.57
2022-12-05T04:23:47.677Z,0.58
2022-12-05T04:24:44.249Z,0.58
2022-12-05T04:25:44.105Z,0.60
2022-12-05T04:26:44.996Z,0.60
2022-12-05T04:27:45.903Z,0.60
2022-12-05T04:28:46.773Z,0.61
2022-12-05T04:29:47.660Z,0.61
2022-12-05T04:30:48.612Z,0.62
2022-12-05T04:31:49.472Z,0.62
2022-12-05T04:32:50.380Z,0.65
2022-12-05T04:33:51.239Z,0.65
2022-12-05T04:34:52.123Z,0.62
2022-12-05T04:35:53.021Z,0.65
2022-12-05T04:36:53.886Z,0.62
2022-12-05T04:37:54.760Z,0.65
2022-12-05T04:38:55.642Z,0.61
2022-12-05T04:39:56.834Z,0.65
2022-12-05T04:40:57.337Z,0.65
2022-12-05T04:41:58.224Z,0.66
2022-12-05T04:42:59.104Z,0.66
2022-12-05T04:44:00.010Z,0.66
2022-12-05T04:45:00.869Z,0.66
2022-12-05T04:46:01.761Z,0.66
2022-12-05T04:47:02.646Z,0.66
2022-12-05T04:48:03.519Z,0.66
2022-12-05T04:49:04.402Z,0.65
2022-12-05T04:50:05.273Z,0.65
2022-12-05T04:51:06.179Z,0.66
2022-12-05T04:52:07.038Z,0.65
2022-12-05T04:53:07.936Z,0.66
2022-12-05T04:54:08.809Z,0.65
2022-12-05T04:55:09.688Z,0.66
2022-12-05T04:56:10.562Z,0.66
2022-12-05T04:57:11.453Z,0.65
2022-12-05T04:58:12.327Z,0.65
2022-12-05T04:59:13.218Z,0.66
2022-12-05T05:00:14.095Z,0.66
2022-12-05T05:01:15.028Z,0.65
2022-12-05T05:02:15.944Z,0.66
2022-12-05T05:03:16.946Z,0.65
2022-12-05T05:04:17.323Z,0.66
2022-12-05T05:05:18.211Z,0.66
2022-12-05T05:06:19.115Z,0.68
2022-12-05T05:07:19.981Z,0.65
2022-12-05T05:08:21.021Z,0.62
2022-12-05T05:09:21.423Z,0.65
2022-12-05T05:10:22.297Z,0.62
2022-12-05T05:11:23.184Z,0.62
2022-12-05T05:12:24.072Z,0.61
2022-12-05T05:13:24.953Z,0.61
2022-12-05T05:14:25.827Z,0.61
2022-12-05T05:15:26.710Z,0.62
2022-12-05T05:16:27.660Z,0.61
2022-12-05T05:17:28.554Z,0.60
2022-12-05T05:18:29.415Z,0.60
2022-12-05T05:19:30.293Z,0.60
2022-12-05T05:20:31.166Z,0.58
2022-12-05T05:21:32.071Z,0.60
2022-12-05T05:22:32.933Z,0.57
2022-12-05T05:23:33.828Z,0.60
2022-12-05T05:24:34.700Z,0.60
2022-12-05T05:25:35.581Z,0.60
2022-12-05T05:26:36.465Z,0.60
2022-12-05T05:27:37.375Z,0.58
2022-12-05T05:28:38.247Z,0.58
2022-12-05T05:29:39.146Z,0.57
2022-12-05T05:30:40.021Z,0.58
2022-12-05T05:31:41.027Z,0.57
2022-12-05T05:32:41.448Z,0.58
2022-12-05T05:33:42.330Z,0.55
2022-12-05T05:34:43.209Z,0.55
2022-12-05T05:35:44.085Z,0.51
2022-12-05T05:36:44.984Z,0.53
2022-12-05T05:37:45.850Z,0.53
2022-12-05T05:38:46.723Z,0.55
2022-12-05T05:39:47.607Z,0.50
2022-12-05T05:40:48.501Z,0.50
2022-12-05T05:41:49.362Z,0.50
2022-12-05T05:42:50.244Z,0.50
2022-12-05T05:43:51.127Z,0.50
2022-12-05T05:44:52.042Z,0.49
2022-12-05T05:45:52.906Z,0.49
2022-12-05T05:46:53.843Z,0.49
2022-12-05T05:47:54.773Z,0.50
2022-12-05T05:48:55.648Z,0.46
2022-12-05T05:49:57.160Z,0.50
2022-12-05T05:50:57.245Z,0.49
2022-12-05T05:51:58.151Z,0.49
2022-12-05T05:52:59.032Z,0.47
2022-12-05T05:53:59.918Z,0.47
2022-12-05T05:55:00.791Z,0.46
2022-12-05T05:56:01.673Z,0.49
2022-12-05T05:57:02.549Z,0.47
2022-12-05T05:58:03.440Z,0.47
2022-12-05T05:59:04.313Z,0.46
2022-12-05T06:00:05.213Z,0.47
2022-12-05T06:01:06.091Z,0.49
2022-12-05T06:02:06.964Z,0.46
2022-12-05T06:03:07.982Z,0.49
2022-12-05T06:04:08.512Z,0.49
2022-12-05T06:05:08.924Z,0.46
2022-12-05T06:06:09.796Z,0.49
2022-12-05T06:07:10.692Z,0.46
2022-12-05T06:08:11.640Z,0.46
2022-12-05T06:09:12.535Z,0.42
2022-12-05T06:10:13.418Z,0.41
2022-12-05T06:11:14.299Z,0.41
2022-12-05T06:12:15.179Z,0.39
2022-12-05T06:13:16.068Z,0.35
2022-12-05T06:14:16.950Z,0.33
2022-12-05T06:15:17.833Z,0.36
2022-12-05T06:16:18.802Z,0.35
2022-12-05T06:17:19.639Z,0.32
2022-12-05T06:18:20.564Z,0.33
2022-12-05T06:19:21.427Z,0.31
2022-12-05T06:20:22.309Z,0.32
2022-12-05T06:21:23.182Z,0.31
2022-12-05T06:22:24.094Z,0.31
2022-12-05T06:23:24.947Z,0.32
2022-12-05T06:24:25.869Z,0.32
2022-12-05T06:25:26.729Z,0.33
2022-12-05T06:26:27.610Z,0.32
2022-12-05T06:27:28.485Z,0.32
2022-12-05T06:28:29.391Z,0.33
2022-12-05T06:29:33.844Z,0.33
2022-12-05T06:30:31.051Z,0.32
2022-12-05T06:31:32.113Z,0.33
2022-12-05T06:32:32.410Z,0.32
2022-12-05T06:33:33.294Z,0.33
2022-12-05T06:34:34.176Z,0.32
2022-12-05T06:35:35.059Z,0.31
2022-12-05T06:36:35.953Z,0.32
2022-12-05T06:37:36.852Z,0.32
2022-12-05T06:38:41.717Z,0.29
2022-12-05T06:39:38.679Z,0.28
2022-12-05T06:40:39.559Z,0.29
2022-12-05T06:41:40.390Z,0.28
2022-12-05T06:42:41.229Z,0.24
2022-12-05T06:43:42.058Z,0.24
2022-12-05T06:44:42.939Z,0.24
2022-12-05T06:45:43.886Z,0.21
2022-12-05T06:46:44.662Z,0.23
2022-12-05T06:47:45.483Z,0.20
2022-12-05T06:48:46.351Z,0.18
2022-12-05T06:49:47.220Z,0.17
2022-12-05T06:50:48.062Z,0.17
2022-12-05T06:51:48.880Z,0.14
2022-12-05T06:52:49.733Z,0.14
2022-12-05T06:53:50.551Z,0.14
2022-12-05T06:54:51.367Z,0.11
2022-12-05T06:55:52.188Z,0.13
2022-12-05T06:56:53.015Z,0.13
2022-12-05T06:57:53.835Z,0.13
2022-12-05T06:58:54.677Z,0.14
2022-12-05T06:59:55.856Z,0.14
2022-12-05T07:00:56.292Z,0.15
2022-12-05T07:01:57.102Z,0.17
2022-12-05T07:02:57.882Z,0.15
2022-12-05T07:03:58.712Z,0.18
2022-12-05T07:04:59.540Z,0.18
2022-12-05T07:06:00.390Z,0.18
2022-12-05T07:07:01.189Z,0.20
2022-12-05T07:08:02.106Z,0.23
2022-12-05T07:09:02.875Z,0.23
2022-12-05T07:10:03.696Z,0.23
2022-12-05T07:11:04.537Z,0.23
2022-12-05T07:12:05.349Z,0.24
2022-12-05T07:13:06.189Z,0.24
2022-12-05T07:14:10.683Z,0.24
2022-12-05T07:15:08.749Z,0.24
2022-12-05T07:16:08.639Z,0.26
2022-12-05T07:17:09.445Z,0.26
2022-12-05T07:18:10.252Z,0.28
2022-12-05T07:19:11.088Z,0.29
2022-12-05T07:20:11.933Z,0.28
2022-12-05T07:21:13.625Z,0.29
2022-12-05T07:22:15.886Z,0.28
2022-12-05T07:23:14.615Z,0.29
2022-12-05T07:24:15.425Z,0.31
2022-12-05T07:25:16.277Z,0.31
2022-12-05T07:26:17.083Z,0.32
2022-12-05T07:27:23.297Z,0.32
2022-12-05T07:28:19.633Z,0.32
2022-12-05T07:29:19.478Z,0.32
2022-12-05T07:30:20.307Z,0.33
2022-12-05T07:31:21.179Z,0.32
2022-12-05T07:32:21.961Z,0.31
2022-12-05T07:33:22.778Z,0.35
2022-12-05T07:34:23.624Z,0.35
2022-12-05T07:35:24.444Z,0.36
2022-12-05T07:36:25.264Z,0.36
2022-12-05T07:37:26.099Z,0.36
2022-12-05T07:38:26.955Z,0.38
2022-12-05T07:39:27.790Z,0.38
2022-12-05T07:40:28.609Z,0.39
2022-12-05T07:41:29.444Z,0.39
2022-12-05T07:42:30.276Z,0.41
2022-12-05T07:43:31.103Z,0.42
2022-12-05T07:44:31.941Z,0.42
2022-12-05T07:45:32.832Z,0.44
2022-12-05T07:46:33.629Z,0.44
2022-12-05T07:47:34.572Z,0.46
2022-12-05T07:48:35.014Z,0.47
2022-12-05T07:49:35.854Z,0.46
2022-12-05T07:50:36.664Z,0.49
2022-12-05T07:51:37.492Z,0.49
2022-12-05T07:52:38.315Z,0.49
2022-12-05T07:53:39.170Z,0.50
2022-12-05T07:54:39.997Z,0.51
2022-12-05T07:55:40.813Z,0.53
2022-12-05T07:56:47.425Z,0.55
2022-12-05T07:57:43.354Z,0.53
2022-12-05T07:58:43.185Z,0.57
2022-12-05T07:59:44.064Z,0.55
2022-12-05T08:00:44.843Z,0.58
2022-12-05T08:01:45.783Z,0.60
2022-12-05T08:02:46.629Z,0.58
2022-12-05T08:03:47.423Z,0.58
2022-12-05T08:04:48.272Z,0.57
2022-12-05T08:05:49.135Z,0.60
2022-12-05T08:06:49.943Z,0.58
2022-12-05T08:07:50.867Z,0.61
2022-12-05T08:08:51.663Z,0.61
2022-12-05T08:09:52.482Z,0.61
2022-12-05T08:10:53.309Z,0.65
2022-12-05T08:11:54.164Z,0.62
2022-12-05T08:12:54.960Z,0.62
2022-12-05T08:13:55.781Z,0.66
2022-12-05T08:14:56.635Z,0.62
2022-12-05T08:15:57.466Z,0.66
2022-12-05T08:16:58.318Z,0.62
2022-12-05T08:17:59.146Z,0.61
2022-12-05T08:18:59.954Z,0.61
2022-12-05T08:20:00.941Z,0.62
2022-12-05T08:21:01.701Z,0.62
2022-12-05T08:22:02.523Z,0.62
2022-12-05T08:23:03.349Z,0.66
2022-12-05T08:24:04.204Z,0.65
2022-12-05T08:25:05.025Z,0.65
2022-12-05T08:26:05.845Z,0.62
2022-12-05T08:27:06.674Z,0.68
2022-12-05T08:28:07.491Z,0.66
2022-12-05T08:29:08.321Z,0.66
2022-12-05T08:30:09.192Z,0.66
2022-12-05T08:31:10.083Z,0.65
2022-12-05T08:32:10.890Z,0.66
2022-12-05T08:33:11.720Z,0.68
2022-12-05T08:34:12.541Z,0.68
2022-12-05T08:35:13.376Z,0.68
2022-12-05T08:36:14.218Z,0.69
2022-12-05T08:37:15.044Z,0.70
2022-12-05T08:38:15.863Z,0.70
2022-12-05T08:39:16.750Z,0.73
2022-12-05T08:40:17.519Z,0.72
2022-12-05T08:41:18.350Z,0.73
2022-12-05T08:42:19.195Z,0.76
2022-12-05T08:43:20.005Z,0.76
2022-12-05T08:44:20.827Z,0.78
2022-12-05T08:45:21.665Z,0.78
2022-12-05T08:46:22.586Z,0.80
2022-12-05T08:47:23.377Z,0.84
2022-12-05T08:48:29.010Z,0.86
2022-12-05T08:49:25.921Z,0.88
2022-12-05T08:50:25.788Z,0.88
2022-12-05T08:51:26.582Z,0.91
2022-12-05T08:52:27.400Z,0.93
2022-12-05T08:53:28.229Z,0.94
2022-12-05T08:54:29.078Z,0.97
2022-12-05T08:55:29.889Z,0.97
2022-12-05T08:56:30.719Z,0.97
2022-12-05T08:57:31.548Z,1.02
2022-12-05T08:58:32.382Z,0.98
2022-12-05T08:59:33.207Z,1.04
2022-12-05T09:00:34.066Z,1.04
2022-12-05T09:01:34.953Z,1.06
2022-12-05T09:02:35.798Z,1.09
2022-12-05T09:03:36.576Z,1.09
2022-12-05T09:04:37.397Z,1.09
2022-12-05T09:05:38.231Z,1.12
2022-12-05T09:06:39.081Z,1.12
2022-12-05T09:07:39.913Z,1.14
2022-12-05T09:08:40.712Z,1.15
2022-12-05T09:09:41.563Z,1.16
2022-12-05T09:10:42.370Z,1.20
2022-12-05T09:11:43.201Z,1.22
2022-12-05T09:12:44.042Z,1.26
2022-12-05T09:13:44.850Z,1.27
2022-12-05T09:14:45.678Z,1.30
2022-12-05T09:15:46.575Z,1.30
2022-12-05T09:16:47.338Z,1.30
2022-12-05T09:17:48.165Z,1.33
2022-12-05T09:18:49.015Z,1.34
2022-12-05T09:19:49.816Z,1.36
2022-12-05T09:20:50.643Z,1.36
2022-12-05T09:21:51.473Z,1.37
2022-12-05T09:22:52.303Z,1.41
2022-12-05T09:23:53.133Z,1.45
2022-12-05T09:24:53.992Z,1.47
2022-12-05T09:25:54.824Z,1.48
2022-12-05T09:26:55.639Z,1.55
2022-12-05T09:27:56.469Z,1.58
2022-12-05T09:28:57.292Z,1.60
2022-12-05T09:29:58.119Z,1.59
2022-12-05T09:30:59.041Z,1.65
2022-12-05T09:31:59.860Z,1.65
2022-12-05T09:33:00.680Z,1.68
2022-12-05T09:34:01.511Z,1.73
2022-12-05T09:35:02.330Z,1.76
2022-12-05T09:36:03.181Z,1.77
2022-12-05T09:37:30.423Z,1.79
2022-12-05T09:38:05.717Z,1.83
2022-12-05T09:39:05.536Z,1.83
2022-12-05T09:40:06.392Z,1.87
2022-12-05T09:41:07.200Z,1.88
2022-12-05T09:42:08.168Z,1.88
2022-12-05T09:43:09.040Z,1.91
2022-12-05T09:44:09.848Z,1.95
2022-12-05T09:45:10.668Z,2.00
2022-12-05T09:46:11.595Z,2.02
2022-12-05T09:47:12.378Z,2.03
2022-12-05T09:48:13.207Z,2.05
2022-12-05T09:49:14.054Z,2.07
2022-12-05T09:50:14.858Z,2.09
2022-12-05T09:51:15.697Z,2.10
2022-12-05T09:52:16.521Z,2.14
2022-12-05T09:53:17.345Z,2.14
2022-12-05T09:54:18.171Z,2.17
2022-12-05T09:55:19.030Z,2.20
2022-12-05T09:56:19.842Z,2.23
2022-12-05T09:57:20.663Z,2.24
2022-12-05T09:58:21.491Z,2.25
2022-12-05T09:59:22.313Z,2.25
2022-12-05T10:00:23.141Z,2.28
2022-12-05T10:01:24.088Z,2.30
2022-12-05T10:02:24.847Z,2.35
2022-12-05T10:03:25.666Z,2.36
2022-12-05T10:04:26.619Z,2.38
2022-12-05T10:05:27.526Z,2.39
2022-12-05T10:06:28.372Z,2.39
2022-12-05T10:07:29.343Z,2.41
2022-12-05T10:08:30.136Z,2.42
2022-12-05T10:09:30.956Z,2.43
2022-12-05T10:10:31.807Z,2.48
2022-12-05T10:11:32.618Z,2.52
2022-12-05T10:12:33.448Z,2.49
2022-12-05T10:13:34.286Z,2.49
2022-12-05T10:14:35.095Z,2.49
2022-12-05T10:15:36.017Z,2.52
2022-12-05T10:16:36.868Z,2.53
2022-12-05T10:17:37.655Z,2.52
2022-12-05T10:18:38.480Z,2.54
2022-12-05T10:19:39.330Z,2.54
2022-12-05T10:20:40.133Z,2.56
2022-12-05T10:21:40.964Z,2.57
2022-12-05T10:22:41.791Z,2.60
2022-12-05T10:23:57.171Z,2.60
2022-12-05T10:24:44.325Z,2.61
2022-12-05T10:25:44.171Z,2.63
2022-12-05T10:26:44.987Z,2.63
2022-12-05T10:27:45.804Z,2.64
2022-12-05T10:28:46.631Z,2.66
2022-12-05T10:29:47.469Z,2.69
2022-12-05T10:30:48.299Z,2.69
2022-12-05T10:31:49.161Z,2.71
2022-12-05T10:32:49.963Z,2.74
2022-12-05T10:33:50.832Z,2.75
2022-12-05T10:34:51.658Z,2.75
2022-12-05T10:35:52.552Z,2.77
2022-12-05T10:36:53.336Z,2.82
2022-12-05T10:37:54.188Z,2.84
2022-12-05T10:38:54.984Z,2.87
2022-12-05T10:39:55.816Z,2.87
2022-12-05T10:40:56.661Z,2.89
2022-12-05T10:41:57.472Z,2.89
2022-12-05T10:42:58.303Z,2.90
2022-12-05T10:43:59.170Z,2.93
2022-12-05T10:45:00.203Z,2.96
2022-12-05T10:46:00.763Z,2.96
2022-12-05T10:47:01.841Z,2.96
2022-12-05T10:48:02.244Z,2.99
2022-12-05T10:49:03.074Z,3.00
2022-12-05T10:50:03.931Z,3.03
2022-12-05T10:51:04.738Z,3.05
2022-12-05T10:52:05.570Z,3.05
2022-12-05T10:53:06.397Z,3.06
2022-12-05T10:54:07.218Z,3.08
2022-12-05T10:55:08.046Z,3.10
2022-12-05T10:56:29.757Z,3.13
2022-12-05T10:57:10.608Z,3.13
2022-12-05T10:58:15.648Z,3.14
2022-12-05T10:59:12.139Z,3.17
2022-12-05T11:00:11.682Z,3.15
2022-12-05T11:01:12.651Z,3.15
2022-12-05T11:02:13.384Z,3.18
2022-12-05T11:03:14.194Z,3.17
2022-12-05T11:04:15.009Z,3.20
2022-12-05T11:05:15.907Z,3.20
2022-12-05T11:06:16.729Z,3.21
2022-12-05T11:07:17.567Z,3.23
2022-12-05T11:08:19.536Z,3.26
2022-12-05T11:09:18.968Z,3.24
2022-12-05T11:10:24.901Z,3.26
2022-12-05T11:11:21.532Z,3.26
2022-12-05T11:12:21.341Z,3.28
2022-12-05T11:13:22.172Z,3.28
2022-12-05T11:14:23.016Z,3.29
2022-12-05T11:15:23.831Z,3.29
2022-12-05T11:16:24.714Z,3.28
2022-12-05T11:17:25.536Z,3.28
2022-12-05T11:18:26.350Z,3.28
2022-12-05T11:19:27.179Z,3.28
2022-12-05T11:20:28.028Z,3.29
2022-12-05T11:21:28.843Z,3.28
2022-12-05T11:22:29.677Z,3.28
2022-12-05T11:23:30.503Z,3.28
2022-12-05T11:24:31.334Z,3.29
2022-12-05T11:25:32.165Z,3.24
2022-12-05T11:26:33.009Z,3.21
2022-12-05T11:27:33.822Z,3.23
2022-12-05T11:28:34.643Z,3.23
2022-12-05T11:29:35.475Z,3.23
2022-12-05T11:30:36.303Z,3.23
2022-12-05T11:31:37.173Z,3.21
2022-12-05T11:32:37.975Z,3.20
2022-12-05T11:33:38.804Z,3.20
2022-12-05T11:34:39.634Z,3.20
2022-12-05T11:35:40.491Z,3.18
2022-12-05T11:36:41.305Z,3.15
2022-12-05T11:37:42.143Z,3.17
2022-12-05T11:38:42.997Z,3.14
2022-12-05T11:39:43.796Z,3.13
2022-12-05T11:40:44.614Z,3.11
2022-12-05T11:41:45.467Z,3.11
2022-12-05T11:42:46.285Z,3.11
2022-12-05T11:43:47.113Z,3.13
2022-12-05T11:44:47.964Z,3.13
2022-12-05T11:45:48.771Z,3.10
2022-12-05T11:46:49.656Z,3.11
2022-12-05T11:47:50.429Z,3.10
2022-12-05T11:48:51.248Z,3.08
2022-12-05T11:49:52.078Z,3.08
2022-12-05T11:50:52.936Z,3.10
2022-12-05T11:51:53.732Z,3.08
2022-12-05T11:52:54.576Z,3.10
2022-12-05T11:53:55.404Z,3.08
2022-12-05T11:55:05.032Z,3.06
2022-12-05T11:55:57.936Z,3.06
2022-12-05T11:56:57.785Z,3.05
2022-12-05T11:57:58.598Z,3.02
2022-12-05T11:58:59.425Z,3.02
2022-12-05T12:00:00.615Z,3.00
2022-12-05T12:01:01.068Z,3.00
2022-12-05T12:02:01.912Z,3.00
2022-12-05T12:03:02.855Z,2.99
2022-12-05T12:04:03.662Z,3.00
2022-12-05T12:05:04.491Z,2.99
2022-12-05T12:06:05.311Z,2.99
2022-12-05T12:07:06.138Z,2.99
2022-12-05T12:08:07.062Z,2.99
2022-12-05T12:09:07.897Z,3.00
2022-12-05T12:10:10.271Z,2.97
2022-12-05T12:11:09.628Z,2.99
2022-12-05T12:12:10.487Z,2.96
2022-12-05T12:13:11.303Z,2.99
2022-12-05T12:14:12.151Z,2.95
2022-12-05T12:15:12.968Z,2.95
2022-12-05T12:16:13.830Z,2.96
2022-12-05T12:17:14.676Z,2.96
2022-12-05T12:18:15.482Z,2.96
2022-12-05T12:19:16.307Z,2.96
2022-12-05T12:20:17.162Z,2.93
2022-12-05T12:21:17.971Z,2.93
2022-12-05T12:22:18.792Z,2.92
2022-12-05T12:23:19.633Z,2.92
2022-12-05T12:24:20.452Z,2.92
2022-12-05T12:25:21.279Z,2.92
2022-12-05T12:26:22.130Z,2.92
2022-12-05T12:27:22.955Z,2.89
2022-12-05T12:28:23.765Z,2.85
2022-12-05T12:29:24.593Z,2.87
2022-12-05T12:30:25.413Z,2.85
2022-12-05T12:31:26.361Z,2.85
2022-12-05T12:32:27.206Z,2.84
2022-12-05T12:33:28.031Z,2.85
2022-12-05T12:34:28.849Z,2.84
2022-12-05T12:35:29.672Z,2.84
2022-12-05T12:36:30.510Z,2.82
2022-12-05T12:37:31.331Z,2.81
2022-12-05T12:38:32.196Z,2.79
2022-12-05T12:39:33.001Z,2.81
2022-12-05T12:40:33.829Z,2.79
2022-12-05T12:41:34.658Z,2.78
2022-12-05T12:42:35.498Z,2.77
2022-12-05T12:44:00.280Z,2.77
2022-12-05T12:44:38.059Z,2.77
2022-12-05T12:45:37.875Z,2.78
2022-12-05T12:46:38.796Z,2.77
2022-12-05T12:47:39.579Z,2.74
2022-12-05T12:48:40.442Z,2.75
2022-12-05T12:49:41.268Z,2.72
2022-12-05T12:50:44.056Z,2.71
2022-12-05T12:51:42.978Z,2.67
2022-12-05T12:52:43.808Z,2.64
2022-12-05T12:53:44.645Z,2.64
2022-12-05T12:55:03.299Z,2.61
2022-12-05T12:55:47.180Z,2.60
2022-12-05T12:56:47.036Z,2.59
2022-12-05T12:57:47.858Z,2.57
2022-12-05T12:58:48.667Z,2.56
2022-12-05T12:59:49.495Z,2.56
2022-12-05T13:00:50.367Z,2.54
2022-12-05T13:01:51.187Z,2.49
2022-12-05T13:02:52.099Z,2.52
2022-12-05T13:03:52.929Z,2.48
2022-12-05T13:04:53.759Z,2.48
2022-12-05T13:05:54.579Z,2.46
2022-12-05T13:06:55.396Z,2.45
2022-12-05T13:07:56.290Z,2.45
2022-12-05T13:08:57.135Z,2.43
2022-12-05T13:09:57.938Z,2.42
2022-12-05T13:10:58.758Z,2.41
2022-12-05T13:11:59.585Z,2.41
2022-12-05T13:13:00.426Z,2.42
2022-12-05T13:14:01.243Z,2.41
2022-12-05T13:15:02.104Z,2.39
2022-12-05T13:16:02.998Z,2.42
2022-12-05T13:17:03.847Z,2.38
2022-12-05T13:18:04.632Z,2.41
2022-12-05T13:19:05.468Z,2.39
2022-12-05T13:20:06.295Z,2.42
2022-12-05T13:21:07.121Z,2.39
2022-12-05T13:22:07.943Z,2.39
2022-12-05T13:23:08.767Z,2.41
2022-12-05T13:24:09.603Z,2.42
2022-12-05T13:25:10.423Z,2.43
2022-12-05T13:26:11.250Z,2.43
2022-12-05T13:27:12.085Z,2.45
2022-12-05T13:28:12.922Z,2.43
2022-12-05T13:29:13.732Z,2.45